sensor_id;sensor_type;location;lat;lon;timestamp;temperature;humidity
13699;DHT22;6921;53.642;9.956;2022-10-16T00:03:42;14.00;99.90
13699;DHT22;6921;53.642;9.956;2022-10-16T00:14:00;14.00;99.90
13699;DHT22;6921;53.642;9.956;2022-10-16T00:16:04;13.90;99.90
13699;DHT22;6921;53.642;9.956;2022-10-16T00:20:12;13.90;99.90
13699;DHT22;6921;53.642;9.956;2022-10-16T00:28:25;13.90;99.90
13699;DHT22;6921;53.642;9.956;2022-10-16T00:36:39;13.90;99.90
13699;DHT22;6921;53.642;9.956;2022-10-16T00:44:53;14.00;99.90
13699;DHT22;6921;53.642;9.956;2022-10-16T00:46:58;14.20;99.90
13699;DHT22;6921;53.642;9.956;2022-10-16T00:49:06;14.10;99.90
13699;DHT22;6921;53.642;9.956;2022-10-16T00:51:10;13.90;99.90
13699;DHT22;6921;53.642;9.956;2022-10-16T00:53:14;14.10;99.90
13699;DHT22;6921;53.642;9.956;2022-10-16T00:55:19;14.00;99.90
13699;DHT22;6921;53.642;9.956;2022-10-16T00:57:23;13.90;99.90
13699;DHT22;6921;53.642;9.956;2022-10-16T00:59:29;14.00;99.90
13699;DHT22;6921;53.642;9.956;2022-10-16T01:01:32;15.90;99.90
13699;DHT22;6921;53.642;9.956;2022-10-16T01:03:36;14.00;99.90
13699;DHT22;6921;53.642;9.956;2022-10-16T01:05:46;14.00;99.90
13699;DHT22;6921;53.642;9.956;2022-10-16T01:07:57;14.00;99.90
13699;DHT22;6921;53.642;9.956;2022-10-16T01:10:07;14.20;99.90
13699;DHT22;6921;53.642;9.956;2022-10-16T01:12:15;13.90;99.90
13699;DHT22;6921;53.642;9.956;2022-10-16T01:14:25;14.90;99.90
13699;DHT22;6921;53.642;9.956;2022-10-16T01:16:34;14.30;99.90
13699;DHT22;6921;53.642;9.956;2022-10-16T01:18:44;13.70;99.90
13699;DHT22;6921;53.642;9.956;2022-10-16T01:20:51;13.80;99.90
13699;DHT22;6921;53.642;9.956;2022-10-16T01:23:05;14.00;99.90
13699;DHT22;6921;53.642;9.956;2022-10-16T01:25:16;13.80;99.90
13699;DHT22;6921;53.642;9.956;2022-10-16T01:27:25;14.30;99.90
13699;DHT22;6921;53.642;9.956;2022-10-16T01:29:31;13.70;99.90
13699;DHT22;6921;53.642;9.956;2022-10-16T01:31:39;13.70;99.90
13699;DHT22;6921;53.642;9.956;2022-10-16T01:33:47;13.70;99.90
13699;DHT22;6921;53.642;9.956;2022-10-16T01:35:53;13.70;99.90
13699;DHT22;6921;53.642;9.956;2022-10-16T01:38:02;13.80;99.90
13699;DHT22;6921;53.642;9.956;2022-10-16T01:40:09;13.90;99.90
13699;DHT22;6921;53.642;9.956;2022-10-16T01:42:16;13.70;99.90
13699;DHT22;6921;53.642;9.956;2022-10-16T01:44:26;14.10;99.90
13699;DHT22;6921;53.642;9.956;2022-10-16T01:46:33;13.80;99.90
13699;DHT22;6921;53.642;9.956;2022-10-16T01:48:37;13.90;99.90
13699;DHT22;6921;53.642;9.956;2022-10-16T01:50:42;13.80;99.90
13699;DHT22;6921;53.642;9.956;2022-10-16T01:54:53;13.50;99.90
13699;DHT22;6921;53.642;9.956;2022-10-16T01:59:04;13.50;99.90
13699;DHT22;6921;53.642;9.956;2022-10-16T02:01:11;13.50;99.90
13699;DHT22;6921;53.642;9.956;2022-10-16T02:05:26;13.40;99.90
13699;DHT22;6921;53.642;9.956;2022-10-16T02:09:34;13.40;99.90
13699;DHT22;6921;53.642;9.956;2022-10-16T02:13:43;13.60;99.90
13699;DHT22;6921;53.642;9.956;2022-10-16T02:15:48;13.40;99.90
13699;DHT22;6921;53.642;9.956;2022-10-16T02:17:52;13.30;99.90
13699;DHT22;6921;53.642;9.956;2022-10-16T02:19:56;13.30;99.90
13699;DHT22;6921;53.642;9.956;2022-10-16T02:22:03;13.30;99.90
13699;DHT22;6921;53.642;9.956;2022-10-16T02:24:12;13.30;99.90
13699;DHT22;6921;53.642;9.956;2022-10-16T02:26:24;13.70;99.90
13699;DHT22;6921;53.642;9.956;2022-10-16T02:28:32;13.30;99.90
13699;DHT22;6921;53.642;9.956;2022-10-16T02:30:41;15.10;99.90
13699;DHT22;6921;53.642;9.956;2022-10-16T02:32:47;13.20;99.90
13699;DHT22;6921;53.642;9.956;2022-10-16T02:34:52;13.20;99.90
13699;DHT22;6921;53.642;9.956;2022-10-16T02:36:56;13.20;99.90
13699;DHT22;6921;53.642;9.956;2022-10-16T02:38:59;13.10;99.90
13699;DHT22;6921;53.642;9.956;2022-10-16T02:41:05;13.50;99.90
13699;DHT22;6921;53.642;9.956;2022-10-16T02:43:08;15.50;99.90
13699;DHT22;6921;53.642;9.956;2022-10-16T02:45:12;13.20;99.90
13699;DHT22;6921;53.642;9.956;2022-10-16T02:47:15;16.10;99.90
13699;DHT22;6921;53.642;9.956;2022-10-16T02:49:17;13.20;99.90
13699;DHT22;6921;53.642;9.956;2022-10-16T02:53:25;13.00;99.90
13699;DHT22;6921;53.642;9.956;2022-10-16T02:55:28;13.00;99.90
13699;DHT22;6921;53.642;9.956;2022-10-16T02:57:32;13.00;99.90
13699;DHT22;6921;53.642;9.956;2022-10-16T02:59:34;13.20;99.90
13699;DHT22;6921;53.642;9.956;2022-10-16T03:01:37;13.20;99.90
13699;DHT22;6921;53.642;9.956;2022-10-16T03:03:40;15.40;99.90
13699;DHT22;6921;53.642;9.956;2022-10-16T03:05:44;13.30;99.90
13699;DHT22;6921;53.642;9.956;2022-10-16T03:07:48;13.30;99.90
13699;DHT22;6921;53.642;9.956;2022-10-16T03:09:51;14.80;99.90
13699;DHT22;6921;53.642;9.956;2022-10-16T03:11:54;12.90;99.90
13699;DHT22;6921;53.642;9.956;2022-10-16T03:13:57;12.90;99.90
13699;DHT22;6921;53.642;9.956;2022-10-16T03:16:00;12.90;99.90
13699;DHT22;6921;53.642;9.956;2022-10-16T03:18:03;13.00;99.90
13699;DHT22;6921;53.642;9.956;2022-10-16T03:20:06;12.80;99.90
13699;DHT22;6921;53.642;9.956;2022-10-16T03:22:09;12.80;99.90
13699;DHT22;6921;53.642;9.956;2022-10-16T03:26:17;12.70;99.90
13699;DHT22;6921;53.642;9.956;2022-10-16T03:28:20;13.60;99.90
13699;DHT22;6921;53.642;9.956;2022-10-16T03:30:23;12.70;99.90
13699;DHT22;6921;53.642;9.956;2022-10-16T03:32:26;12.70;99.90
13699;DHT22;6921;53.642;9.956;2022-10-16T03:34:30;12.90;99.90
13699;DHT22;6921;53.642;9.956;2022-10-16T03:36:33;12.80;99.90
13699;DHT22;6921;53.642;9.956;2022-10-16T03:38:36;12.90;99.90
13699;DHT22;6921;53.642;9.956;2022-10-16T03:40:40;12.60;99.90
13699;DHT22;6921;53.642;9.956;2022-10-16T03:42:43;12.90;99.90
13699;DHT22;6921;53.642;9.956;2022-10-16T03:44:46;12.90;99.90
13699;DHT22;6921;53.642;9.956;2022-10-16T03:46:49;12.90;99.90
13699;DHT22;6921;53.642;9.956;2022-10-16T03:48:52;12.70;99.90
13699;DHT22;6921;53.642;9.956;2022-10-16T03:50:55;12.90;99.90
13699;DHT22;6921;53.642;9.956;2022-10-16T03:52:58;13.10;99.90
13699;DHT22;6921;53.642;9.956;2022-10-16T03:55:01;13.80;99.90
13699;DHT22;6921;53.642;9.956;2022-10-16T03:57:05;12.90;99.90
13699;DHT22;6921;53.642;9.956;2022-10-16T03:59:08;13.00;99.90
13699;DHT22;6921;53.642;9.956;2022-10-16T04:01:10;13.10;99.90
13699;DHT22;6921;53.642;9.956;2022-10-16T04:03:14;13.20;99.90
13699;DHT22;6921;53.642;9.956;2022-10-16T04:05:16;12.90;99.90
13699;DHT22;6921;53.642;9.956;2022-10-16T04:07:19;13.00;99.90
13699;DHT22;6921;53.642;9.956;2022-10-16T04:09:22;13.00;99.90
13699;DHT22;6921;53.642;9.956;2022-10-16T04:13:30;12.50;99.90
13699;DHT22;6921;53.642;9.956;2022-10-16T04:15:33;13.00;99.90
13699;DHT22;6921;53.642;9.956;2022-10-16T04:17:36;12.60;99.90
13699;DHT22;6921;53.642;9.956;2022-10-16T04:19:39;12.70;99.90
13699;DHT22;6921;53.642;9.956;2022-10-16T04:21:42;12.60;99.90
13699;DHT22;6921;53.642;9.956;2022-10-16T04:23:44;12.90;99.90
13699;DHT22;6921;53.642;9.956;2022-10-16T04:25:47;13.70;99.90
13699;DHT22;6921;53.642;9.956;2022-10-16T04:27:52;12.80;99.90
13699;DHT22;6921;53.642;9.956;2022-10-16T04:29:56;12.90;99.90
13699;DHT22;6921;53.642;9.956;2022-10-16T04:31:59;12.50;99.90
13699;DHT22;6921;53.642;9.956;2022-10-16T04:34:02;12.90;99.90
13699;DHT22;6921;53.642;9.956;2022-10-16T04:36:05;12.90;99.90
13699;DHT22;6921;53.642;9.956;2022-10-16T04:38:08;12.90;99.90
13699;DHT22;6921;53.642;9.956;2022-10-16T04:40:11;12.90;99.90
13699;DHT22;6921;53.642;9.956;2022-10-16T04:42:15;12.90;99.90
13699;DHT22;6921;53.642;9.956;2022-10-16T04:46:22;12.50;99.90
13699;DHT22;6921;53.642;9.956;2022-10-16T04:48:25;12.70;99.90
13699;DHT22;6921;53.642;9.956;2022-10-16T04:50:28;12.50;99.90
13699;DHT22;6921;53.642;9.956;2022-10-16T04:52:31;12.70;99.90
13699;DHT22;6921;53.642;9.956;2022-10-16T04:54:34;14.60;99.90
13699;DHT22;6921;53.642;9.956;2022-10-16T04:58:48;12.50;99.90
13699;DHT22;6921;53.642;9.956;2022-10-16T05:00:51;12.60;99.90
13699;DHT22;6921;53.642;9.956;2022-10-16T05:02:55;12.50;99.90
13699;DHT22;6921;53.642;9.956;2022-10-16T05:04:58;12.50;99.90
13699;DHT22;6921;53.642;9.956;2022-10-16T05:07:01;12.90;99.90
13699;DHT22;6921;53.642;9.956;2022-10-16T05:09:04;12.40;99.90
13699;DHT22;6921;53.642;9.956;2022-10-16T05:11:07;15.40;99.90
13699;DHT22;6921;53.642;9.956;2022-10-16T05:13:10;13.70;99.90
13699;DHT22;6921;53.642;9.956;2022-10-16T05:15:13;12.50;99.90
13699;DHT22;6921;53.642;9.956;2022-10-16T05:17:16;12.50;99.90
13699;DHT22;6921;53.642;9.956;2022-10-16T05:19:21;14.50;99.90
13699;DHT22;6921;53.642;9.956;2022-10-16T05:21:28;12.40;99.90
13699;DHT22;6921;53.642;9.956;2022-10-16T05:23:31;12.50;99.90
13699;DHT22;6921;53.642;9.956;2022-10-16T05:25:34;13.00;99.90
13699;DHT22;6921;53.642;9.956;2022-10-16T05:27:36;12.50;99.90
13699;DHT22;6921;53.642;9.956;2022-10-16T05:29:39;12.50;99.90
13699;DHT22;6921;53.642;9.956;2022-10-16T05:33:45;12.50;99.90
13699;DHT22;6921;53.642;9.956;2022-10-16T05:35:54;12.60;99.90
13699;DHT22;6921;53.642;9.956;2022-10-16T05:37:57;12.50;99.90
13699;DHT22;6921;53.642;9.956;2022-10-16T05:40:00;12.40;99.90
13699;DHT22;6921;53.642;9.956;2022-10-16T05:42:04;13.80;99.90
13699;DHT22;6921;53.642;9.956;2022-10-16T05:44:07;12.40;99.90
13699;DHT22;6921;53.642;9.956;2022-10-16T05:46:10;12.50;99.90
13699;DHT22;6921;53.642;9.956;2022-10-16T05:48:13;12.50;99.90
13699;DHT22;6921;53.642;9.956;2022-10-16T05:52:20;12.50;99.90
13699;DHT22;6921;53.642;9.956;2022-10-16T05:54:23;12.50;99.90
13699;DHT22;6921;53.642;9.956;2022-10-16T05:58:31;12.60;99.90
13699;DHT22;6921;53.642;9.956;2022-10-16T06:02:37;12.60;99.90
13699;DHT22;6921;53.642;9.956;2022-10-16T06:04:40;12.60;99.90
13699;DHT22;6921;53.642;9.956;2022-10-16T06:08:48;12.50;99.90
13699;DHT22;6921;53.642;9.956;2022-10-16T06:11:00;12.60;99.90
13699;DHT22;6921;53.642;9.956;2022-10-16T06:13:04;12.60;99.90
13699;DHT22;6921;53.642;9.956;2022-10-16T06:15:08;12.60;99.90
13699;DHT22;6921;53.642;9.956;2022-10-16T06:17:11;12.60;99.90
13699;DHT22;6921;53.642;9.956;2022-10-16T06:19:14;12.60;99.90
13699;DHT22;6921;53.642;9.956;2022-10-16T06:21:20;12.60;99.90
13699;DHT22;6921;53.642;9.956;2022-10-16T06:25:28;12.70;99.90
13699;DHT22;6921;53.642;9.956;2022-10-16T06:29:34;12.70;99.90
13699;DHT22;6921;53.642;9.956;2022-10-16T06:31:37;12.70;99.90
13699;DHT22;6921;53.642;9.956;2022-10-16T06:37:47;12.90;99.90
13699;DHT22;6921;53.642;9.956;2022-10-16T06:39:50;12.80;99.90
13699;DHT22;6921;53.642;9.956;2022-10-16T06:41:56;12.80;99.90
13699;DHT22;6921;53.642;9.956;2022-10-16T06:43:59;12.90;99.90
13699;DHT22;6921;53.642;9.956;2022-10-16T06:46:04;12.80;99.90
13699;DHT22;6921;53.642;9.956;2022-10-16T06:48:08;12.90;99.90
13699;DHT22;6921;53.642;9.956;2022-10-16T06:50:11;12.90;99.90
13699;DHT22;6921;53.642;9.956;2022-10-16T06:52:14;12.90;99.90
13699;DHT22;6921;53.642;9.956;2022-10-16T06:54:17;15.10;99.90
13699;DHT22;6921;53.642;9.956;2022-10-16T06:56:22;13.00;99.90
13699;DHT22;6921;53.642;9.956;2022-10-16T06:58:27;13.20;99.90
13699;DHT22;6921;53.642;9.956;2022-10-16T07:00:30;13.40;99.90
13699;DHT22;6921;53.642;9.956;2022-10-16T07:02:33;13.30;99.90
13699;DHT22;6921;53.642;9.956;2022-10-16T07:04:36;13.60;99.90
13699;DHT22;6921;53.642;9.956;2022-10-16T07:06:39;13.50;99.90
13699;DHT22;6921;53.642;9.956;2022-10-16T07:08:43;14.10;99.90
13699;DHT22;6921;53.642;9.956;2022-10-16T07:10:46;13.60;99.90
13699;DHT22;6921;53.642;9.956;2022-10-16T07:12:49;14.20;99.90
13699;DHT22;6921;53.642;9.956;2022-10-16T07:14:53;13.90;99.90
13699;DHT22;6921;53.642;9.956;2022-10-16T07:16:57;14.20;99.90
13699;DHT22;6921;53.642;9.956;2022-10-16T07:19:02;14.40;99.90
13699;DHT22;6921;53.642;9.956;2022-10-16T07:21:06;14.70;99.90
13699;DHT22;6921;53.642;9.956;2022-10-16T07:23:09;14.10;99.90
13699;DHT22;6921;53.642;9.956;2022-10-16T07:25:12;14.60;99.90
13699;DHT22;6921;53.642;9.956;2022-10-16T07:27:15;14.10;99.90
13699;DHT22;6921;53.642;9.956;2022-10-16T07:29:20;14.40;99.90
13699;DHT22;6921;53.642;9.956;2022-10-16T07:31:25;14.30;99.90
13699;DHT22;6921;53.642;9.956;2022-10-16T07:33:28;14.30;99.90
13699;DHT22;6921;53.642;9.956;2022-10-16T07:35:31;14.60;99.90
13699;DHT22;6921;53.642;9.956;2022-10-16T07:37:34;14.40;99.90
13699;DHT22;6921;53.642;9.956;2022-10-16T07:39:37;14.40;99.90
13699;DHT22;6921;53.642;9.956;2022-10-16T07:41:40;14.30;99.90
13699;DHT22;6921;53.642;9.956;2022-10-16T07:43:45;14.50;99.90
13699;DHT22;6921;53.642;9.956;2022-10-16T07:45:49;14.70;99.90
13699;DHT22;6921;53.642;9.956;2022-10-16T07:47:58;14.50;99.90
13699;DHT22;6921;53.642;9.956;2022-10-16T07:50:01;15.50;99.90
13699;DHT22;6921;53.642;9.956;2022-10-16T07:52:04;14.00;99.90
13699;DHT22;6921;53.642;9.956;2022-10-16T07:54:08;15.00;99.90
13699;DHT22;6921;53.642;9.956;2022-10-16T07:56:11;15.10;99.90
13699;DHT22;6921;53.642;9.956;2022-10-16T07:58:14;14.60;99.90
13699;DHT22;6921;53.642;9.956;2022-10-16T08:00:17;15.00;99.90
13699;DHT22;6921;53.642;9.956;2022-10-16T08:02:20;14.90;99.90
13699;DHT22;6921;53.642;9.956;2022-10-16T08:04:24;14.70;99.90
13699;DHT22;6921;53.642;9.956;2022-10-16T08:06:27;14.70;99.90
13699;DHT22;6921;53.642;9.956;2022-10-16T08:08:30;14.40;99.90
13699;DHT22;6921;53.642;9.956;2022-10-16T08:10:33;14.40;99.90
13699;DHT22;6921;53.642;9.956;2022-10-16T08:12:36;14.50;99.90
13699;DHT22;6921;53.642;9.956;2022-10-16T08:14:39;14.70;99.90
13699;DHT22;6921;53.642;9.956;2022-10-16T08:16:43;14.60;99.90
13699;DHT22;6921;53.642;9.956;2022-10-16T08:18:46;15.40;99.90
13699;DHT22;6921;53.642;9.956;2022-10-16T08:20:56;14.40;99.90
13699;DHT22;6921;53.642;9.956;2022-10-16T08:23:00;14.40;99.90
13699;DHT22;6921;53.642;9.956;2022-10-16T08:25:03;14.80;99.90
13699;DHT22;6921;53.642;9.956;2022-10-16T08:27:06;14.40;99.90
13699;DHT22;6921;53.642;9.956;2022-10-16T08:29:10;14.50;99.90
13699;DHT22;6921;53.642;9.956;2022-10-16T08:31:15;14.80;99.90
13699;DHT22;6921;53.642;9.956;2022-10-16T08:33:23;14.70;99.90
13699;DHT22;6921;53.642;9.956;2022-10-16T08:35:26;14.90;99.90
13699;DHT22;6921;53.642;9.956;2022-10-16T08:37:31;15.10;99.90
13699;DHT22;6921;53.642;9.956;2022-10-16T08:39:35;14.70;99.90
13699;DHT22;6921;53.642;9.956;2022-10-16T08:42:00;14.70;99.90
13699;DHT22;6921;53.642;9.956;2022-10-16T08:46:45;14.80;99.90
13699;DHT22;6921;53.642;9.956;2022-10-16T08:48:55;15.30;99.90
13699;DHT22;6921;53.642;9.956;2022-10-16T08:51:01;15.30;99.90
13699;DHT22;6921;53.642;9.956;2022-10-16T08:53:07;15.20;99.90
13699;DHT22;6921;53.642;9.956;2022-10-16T08:55:28;15.60;99.90
13699;DHT22;6921;53.642;9.956;2022-10-16T08:57:33;15.20;99.90
13699;DHT22;6921;53.642;9.956;2022-10-16T08:59:36;15.60;99.90
13699;DHT22;6921;53.642;9.956;2022-10-16T09:01:43;15.50;99.90
13699;DHT22;6921;53.642;9.956;2022-10-16T09:06:32;15.60;99.90
13699;DHT22;6921;53.642;9.956;2022-10-16T09:08:46;15.70;99.90
13699;DHT22;6921;53.642;9.956;2022-10-16T09:10:56;15.80;99.90
13699;DHT22;6921;53.642;9.956;2022-10-16T09:13:03;15.90;99.90
13699;DHT22;6921;53.642;9.956;2022-10-16T09:15:20;16.10;99.90
13699;DHT22;6921;53.642;9.956;2022-10-16T09:17:37;16.20;99.90
13699;DHT22;6921;53.642;9.956;2022-10-16T09:19:51;16.20;99.90
13699;DHT22;6921;53.642;9.956;2022-10-16T09:21:56;16.20;99.90
13699;DHT22;6921;53.642;9.956;2022-10-16T09:24:09;16.20;99.90
13699;DHT22;6921;53.642;9.956;2022-10-16T09:26:14;16.60;99.90
13699;DHT22;6921;53.642;9.956;2022-10-16T09:34:32;17.00;99.90
13699;DHT22;6921;53.642;9.956;2022-10-16T09:36:42;16.90;99.90
13699;DHT22;6921;53.642;9.956;2022-10-16T09:38:46;16.80;99.90
13699;DHT22;6921;53.642;9.956;2022-10-16T09:40:53;17.10;99.90
13699;DHT22;6921;53.642;9.956;2022-10-16T09:43:20;17.20;99.90
13699;DHT22;6921;53.642;9.956;2022-10-16T09:47:28;17.30;99.90
13699;DHT22;6921;53.642;9.956;2022-10-16T09:49:33;17.80;99.90
13699;DHT22;6921;53.642;9.956;2022-10-16T09:51:37;18.10;99.90
13699;DHT22;6921;53.642;9.956;2022-10-16T09:53:42;18.60;99.90
13699;DHT22;6921;53.642;9.956;2022-10-16T09:55:51;19.00;99.90
13699;DHT22;6921;53.642;9.956;2022-10-16T09:59:58;19.50;99.90
13699;DHT22;6921;53.642;9.956;2022-10-16T10:02:04;19.60;99.90
13699;DHT22;6921;53.642;9.956;2022-10-16T10:10:27;18.40;99.90
13699;DHT22;6921;53.642;9.956;2022-10-16T10:12:33;18.20;99.90
13699;DHT22;6921;53.642;9.956;2022-10-16T10:20:57;17.70;99.90
13699;DHT22;6921;53.642;9.956;2022-10-16T10:25:25;17.60;99.90
13699;DHT22;6921;53.642;9.956;2022-10-16T10:27:36;17.60;99.90
13699;DHT22;6921;53.642;9.956;2022-10-16T10:34:08;17.60;99.90
13699;DHT22;6921;53.642;9.956;2022-10-16T10:36:25;17.70;99.90
13699;DHT22;6921;53.642;9.956;2022-10-16T10:38:38;18.00;99.90
13699;DHT22;6921;53.642;9.956;2022-10-16T10:40:48;18.10;99.90
13699;DHT22;6921;53.642;9.956;2022-10-16T10:42:59;18.10;99.90
13699;DHT22;6921;53.642;9.956;2022-10-16T10:45:17;18.30;99.90
13699;DHT22;6921;53.642;9.956;2022-10-16T10:47:30;18.30;99.90
13699;DHT22;6921;53.642;9.956;2022-10-16T10:49:46;18.20;99.90
13699;DHT22;6921;53.642;9.956;2022-10-16T10:52:01;18.40;99.90
13699;DHT22;6921;53.642;9.956;2022-10-16T10:54:15;18.40;99.90
13699;DHT22;6921;53.642;9.956;2022-10-16T10:56:39;18.40;99.90
13699;DHT22;6921;53.642;9.956;2022-10-16T11:01:01;18.20;99.90
13699;DHT22;6921;53.642;9.956;2022-10-16T11:03:17;18.20;99.90
13699;DHT22;6921;53.642;9.956;2022-10-16T11:05:43;18.30;99.90
13699;DHT22;6921;53.642;9.956;2022-10-16T11:07:50;18.30;99.90
13699;DHT22;6921;53.642;9.956;2022-10-16T11:09:57;18.40;99.90
13699;DHT22;6921;53.642;9.956;2022-10-16T11:12:06;18.50;99.90
13699;DHT22;6921;53.642;9.956;2022-10-16T11:14:16;18.60;99.90
13699;DHT22;6921;53.642;9.956;2022-10-16T11:16:26;18.70;99.90
13699;DHT22;6921;53.642;9.956;2022-10-16T11:18:33;19.00;99.90
13699;DHT22;6921;53.642;9.956;2022-10-16T11:20:44;19.30;99.90
13699;DHT22;6921;53.642;9.956;2022-10-16T11:22:53;19.60;99.90
13699;DHT22;6921;53.642;9.956;2022-10-16T11:25:02;19.80;99.90
13699;DHT22;6921;53.642;9.956;2022-10-16T11:27:09;19.60;99.90
13699;DHT22;6921;53.642;9.956;2022-10-16T11:29:20;19.40;99.90
13699;DHT22;6921;53.642;9.956;2022-10-16T11:31:29;19.80;99.90
13699;DHT22;6921;53.642;9.956;2022-10-16T11:33:39;16.40;99.90
13699;DHT22;6921;53.642;9.956;2022-10-16T11:35:46;19.50;99.90
13699;DHT22;6921;53.642;9.956;2022-10-16T11:37:51;18.90;99.90
13699;DHT22;6921;53.642;9.956;2022-10-16T11:40:00;18.80;99.90
13699;DHT22;6921;53.642;9.956;2022-10-16T11:42:10;19.10;99.90
13699;DHT22;6921;53.642;9.956;2022-10-16T11:44:27;19.30;99.90
13699;DHT22;6921;53.642;9.956;2022-10-16T11:46:36;19.40;99.90
13699;DHT22;6921;53.642;9.956;2022-10-16T11:48:57;19.40;99.90
13699;DHT22;6921;53.642;9.956;2022-10-16T11:51:06;19.40;99.90
13699;DHT22;6921;53.642;9.956;2022-10-16T11:53:16;19.70;99.90
13699;DHT22;6921;53.642;9.956;2022-10-16T11:55:22;19.70;99.90
13699;DHT22;6921;53.642;9.956;2022-10-16T11:57:29;20.50;98.60
13699;DHT22;6921;53.642;9.956;2022-10-16T11:59:40;20.70;95.80
13699;DHT22;6921;53.642;9.956;2022-10-16T12:01:48;21.00;96.30
13699;DHT22;6921;53.642;9.956;2022-10-16T12:04:02;21.40;95.10
13699;DHT22;6921;53.642;9.956;2022-10-16T12:06:13;21.40;94.60
13699;DHT22;6921;53.642;9.956;2022-10-16T12:10:25;22.00;88.30
13699;DHT22;6921;53.642;9.956;2022-10-16T12:12:38;22.80;99.90
13699;DHT22;6921;53.642;9.956;2022-10-16T12:14:42;23.10;76.50
13699;DHT22;6921;53.642;9.956;2022-10-16T12:17:24;22.90;75.20
13699;DHT22;6921;53.642;9.956;2022-10-16T12:19:29;22.60;76.70
13699;DHT22;6921;53.642;9.956;2022-10-16T12:21:33;21.70;89.20
13699;DHT22;6921;53.642;9.956;2022-10-16T12:23:37;22.40;76.60
13699;DHT22;6921;53.642;9.956;2022-10-16T12:25:41;23.30;82.00
13699;DHT22;6921;53.642;9.956;2022-10-16T12:27:54;23.70;70.80
13699;DHT22;6921;53.642;9.956;2022-10-16T12:30:01;24.00;66.90
13699;DHT22;6921;53.642;9.956;2022-10-16T12:32:06;24.40;64.60
13699;DHT22;6921;53.642;9.956;2022-10-16T12:34:43;24.50;61.70
13699;DHT22;6921;53.642;9.956;2022-10-16T12:36:46;24.20;67.40
13699;DHT22;6921;53.642;9.956;2022-10-16T12:38:50;23.80;64.70
13699;DHT22;6921;53.642;9.956;2022-10-16T12:40:59;23.60;68.40
13699;DHT22;6921;53.642;9.956;2022-10-16T12:43:37;23.40;69.10
13699;DHT22;6921;53.642;9.956;2022-10-16T12:45:41;23.20;64.20
13699;DHT22;6921;53.642;9.956;2022-10-16T12:47:50;22.00;68.50
13699;DHT22;6921;53.642;9.956;2022-10-16T12:54:03;20.00;86.40
13699;DHT22;6921;53.642;9.956;2022-10-16T12:56:12;19.90;85.90
13699;DHT22;6921;53.642;9.956;2022-10-16T12:58:42;19.50;96.20
13699;DHT22;6921;53.642;9.956;2022-10-16T13:00:53;19.30;94.90
13699;DHT22;6921;53.642;9.956;2022-10-16T13:03:24;19.00;92.50
13699;DHT22;6921;53.642;9.956;2022-10-16T13:05:35;18.80;98.40
13699;DHT22;6921;53.642;9.956;2022-10-16T13:07:49;18.60;98.20
13699;DHT22;6921;53.642;9.956;2022-10-16T13:10:03;18.70;99.90
13699;DHT22;6921;53.642;9.956;2022-10-16T13:12:28;18.50;97.40
13699;DHT22;6921;53.642;9.956;2022-10-16T13:14:53;18.40;99.90
13699;DHT22;6921;53.642;9.956;2022-10-16T13:17:07;18.20;99.90
13699;DHT22;6921;53.642;9.956;2022-10-16T13:19:20;18.10;99.90
13699;DHT22;6921;53.642;9.956;2022-10-16T13:21:44;18.00;99.90
13699;DHT22;6921;53.642;9.956;2022-10-16T13:23:54;18.10;99.90
13699;DHT22;6921;53.642;9.956;2022-10-16T13:48:58;18.40;99.90
13699;DHT22;6921;53.642;9.956;2022-10-16T13:51:03;18.30;99.90
13699;DHT22;6921;53.642;9.956;2022-10-16T13:55:13;18.30;99.20
13699;DHT22;6921;53.642;9.956;2022-10-16T13:57:17;18.20;99.50
13699;DHT22;6921;53.642;9.956;2022-10-16T13:59:35;18.20;99.90
13699;DHT22;6921;53.642;9.956;2022-10-16T14:03:45;18.20;99.40
13699;DHT22;6921;53.642;9.956;2022-10-16T14:05:52;18.10;97.40
13699;DHT22;6921;53.642;9.956;2022-10-16T14:16:17;17.80;99.90
13699;DHT22;6921;53.642;9.956;2022-10-16T14:18:22;17.80;99.90
13699;DHT22;6921;53.642;9.956;2022-10-16T14:20:30;17.80;99.90
13699;DHT22;6921;53.642;9.956;2022-10-16T14:22:39;17.80;99.90
13699;DHT22;6921;53.642;9.956;2022-10-16T14:29:08;17.90;99.90
13699;DHT22;6921;53.642;9.956;2022-10-16T14:31:30;17.80;99.90
13699;DHT22;6921;53.642;9.956;2022-10-16T14:35:39;17.70;99.90
13699;DHT22;6921;53.642;9.956;2022-10-16T14:37:43;17.60;99.90
13699;DHT22;6921;53.642;9.956;2022-10-16T14:39:49;17.70;99.90
13699;DHT22;6921;53.642;9.956;2022-10-16T14:41:55;17.60;99.90
13699;DHT22;6921;53.642;9.956;2022-10-16T14:44:02;17.50;99.90
13699;DHT22;6921;53.642;9.956;2022-10-16T14:46:11;17.50;99.90
13699;DHT22;6921;53.642;9.956;2022-10-16T14:48:17;17.50;99.90
13699;DHT22;6921;53.642;9.956;2022-10-16T14:50:21;17.70;99.90
13699;DHT22;6921;53.642;9.956;2022-10-16T14:52:24;17.50;99.90
13699;DHT22;6921;53.642;9.956;2022-10-16T14:54:29;17.50;99.90
13699;DHT22;6921;53.642;9.956;2022-10-16T14:56:35;17.50;99.90
13699;DHT22;6921;53.642;9.956;2022-10-16T14:58:43;17.50;99.90
13699;DHT22;6921;53.642;9.956;2022-10-16T15:06:57;17.30;99.90
13699;DHT22;6921;53.642;9.956;2022-10-16T15:11:05;17.20;99.90
13699;DHT22;6921;53.642;9.956;2022-10-16T15:13:11;17.10;99.90
13699;DHT22;6921;53.642;9.956;2022-10-16T15:15:30;17.10;99.90
13699;DHT22;6921;53.642;9.956;2022-10-16T15:25:49;17.00;99.90
13699;DHT22;6921;53.642;9.956;2022-10-16T15:27:54;17.00;99.90
13699;DHT22;6921;53.642;9.956;2022-10-16T15:38:11;16.80;99.90
13699;DHT22;6921;53.642;9.956;2022-10-16T15:40:16;16.60;99.90
13699;DHT22;6921;53.642;9.956;2022-10-16T15:44:23;16.60;99.90
13699;DHT22;6921;53.642;9.956;2022-10-16T15:46:31;16.60;99.90
13699;DHT22;6921;53.642;9.956;2022-10-16T15:48:35;16.30;99.90
13699;DHT22;6921;53.642;9.956;2022-10-16T15:50:39;16.40;99.90
13699;DHT22;6921;53.642;9.956;2022-10-16T15:54:45;16.30;99.90
13699;DHT22;6921;53.642;9.956;2022-10-16T15:56:52;16.30;99.90
13699;DHT22;6921;53.642;9.956;2022-10-16T15:58:55;15.90;99.90
13699;DHT22;6921;53.642;9.956;2022-10-16T16:01:01;16.20;99.90
13699;DHT22;6921;53.642;9.956;2022-10-16T16:07:12;16.10;99.90
13699;DHT22;6921;53.642;9.956;2022-10-16T16:13:22;15.60;99.90
13699;DHT22;6921;53.642;9.956;2022-10-16T16:17:30;15.90;99.90
13699;DHT22;6921;53.642;9.956;2022-10-16T16:34:00;15.20;99.90
13699;DHT22;6921;53.642;9.956;2022-10-16T16:36:05;15.20;99.90
13699;DHT22;6921;53.642;9.956;2022-10-16T16:50:36;14.50;99.90
13699;DHT22;6921;53.642;9.956;2022-10-16T16:58:56;14.20;99.90
13699;DHT22;6921;53.642;9.956;2022-10-16T17:01:00;14.20;99.90
13699;DHT22;6921;53.642;9.956;2022-10-16T17:05:23;14.10;99.90
13699;DHT22;6921;53.642;9.956;2022-10-16T17:07:32;14.10;99.90
13699;DHT22;6921;53.642;9.956;2022-10-16T17:11:39;13.70;99.90
13699;DHT22;6921;53.642;9.956;2022-10-16T17:13:44;13.80;99.90
13699;DHT22;6921;53.642;9.956;2022-10-16T17:15:50;14.30;99.90
13699;DHT22;6921;53.642;9.956;2022-10-16T17:24:09;13.60;99.90
13699;DHT22;6921;53.642;9.956;2022-10-16T17:26:14;13.60;99.90
13699;DHT22;6921;53.642;9.956;2022-10-16T17:30:23;13.50;99.90
13699;DHT22;6921;53.642;9.956;2022-10-16T17:32:25;13.40;99.90